sensor_id;sensor_type;location;lat;lon;timestamp;temperature;humidity
8489;DHT22;4281;45.772;12.852;2022-09-21T00:01:28;17.50;99.90
8489;DHT22;4281;45.772;12.852;2022-09-21T00:03:58;17.50;99.90
8489;DHT22;4281;45.772;12.852;2022-09-21T00:06:29;17.40;99.90
8489;DHT22;4281;45.772;12.852;2022-09-21T00:08:59;17.40;99.90
8489;DHT22;4281;45.772;12.852;2022-09-21T00:11:31;17.10;99.90
8489;DHT22;4281;45.772;12.852;2022-09-21T00:14:02;17.10;99.90
8489;DHT22;4281;45.772;12.852;2022-09-21T00:16:33;17.20;99.90
8489;DHT22;4281;45.772;12.852;2022-09-21T00:19:02;17.00;99.90
8489;DHT22;4281;45.772;12.852;2022-09-21T00:21:30;17.00;99.90
8489;DHT22;4281;45.772;12.852;2022-09-21T00:24:03;17.00;99.90
8489;DHT22;4281;45.772;12.852;2022-09-21T00:26:31;17.10;99.90
8489;DHT22;4281;45.772;12.852;2022-09-21T00:29:01;17.20;99.90
8489;DHT22;4281;45.772;12.852;2022-09-21T00:31:30;17.20;99.90
8489;DHT22;4281;45.772;12.852;2022-09-21T00:33:59;17.30;99.90
8489;DHT22;4281;45.772;12.852;2022-09-21T00:36:29;17.30;99.90
8489;DHT22;4281;45.772;12.852;2022-09-21T00:38:59;17.20;99.90
8489;DHT22;4281;45.772;12.852;2022-09-21T00:41:31;17.00;99.90
8489;DHT22;4281;45.772;12.852;2022-09-21T00:44:24;17.10;99.90
8489;DHT22;4281;45.772;12.852;2022-09-21T00:46:56;17.30;99.90
8489;DHT22;4281;45.772;12.852;2022-09-21T00:49:26;17.20;99.90
8489;DHT22;4281;45.772;12.852;2022-09-21T00:51:56;17.20;99.90
8489;DHT22;4281;45.772;12.852;2022-09-21T00:54:28;17.10;99.90
8489;DHT22;4281;45.772;12.852;2022-09-21T00:57:00;17.00;99.90
8489;DHT22;4281;45.772;12.852;2022-09-21T00:59:30;17.00;99.90
8489;DHT22;4281;45.772;12.852;2022-09-21T01:01:59;16.80;99.90
8489;DHT22;4281;45.772;12.852;2022-09-21T01:04:28;16.60;99.90
8489;DHT22;4281;45.772;12.852;2022-09-21T01:06:59;16.70;99.90
8489;DHT22;4281;45.772;12.852;2022-09-21T01:09:30;16.70;99.90
8489;DHT22;4281;45.772;12.852;2022-09-21T01:12:09;16.80;99.90
8489;DHT22;4281;45.772;12.852;2022-09-21T01:14:55;16.80;99.90
8489;DHT22;4281;45.772;12.852;2022-09-21T01:17:31;16.50;99.90
8489;DHT22;4281;45.772;12.852;2022-09-21T01:20:30;16.50;99.90
8489;DHT22;4281;45.772;12.852;2022-09-21T01:23:20;16.40;99.90
8489;DHT22;4281;45.772;12.852;2022-09-21T01:26:00;16.30;99.90
8489;DHT22;4281;45.772;12.852;2022-09-21T01:31:37;15.50;99.90
8489;DHT22;4281;45.772;12.852;2022-09-21T01:34:13;15.10;99.90
8489;DHT22;4281;45.772;12.852;2022-09-21T01:36:47;15.30;99.90
8489;DHT22;4281;45.772;12.852;2022-09-21T01:39:17;14.90;99.90
8489;DHT22;4281;45.772;12.852;2022-09-21T01:41:49;14.70;99.90
8489;DHT22;4281;45.772;12.852;2022-09-21T01:44:22;15.00;99.90
8489;DHT22;4281;45.772;12.852;2022-09-21T01:46:56;15.10;99.90
8489;DHT22;4281;45.772;12.852;2022-09-21T01:49:30;15.20;99.90
8489;DHT22;4281;45.772;12.852;2022-09-21T01:52:06;15.10;99.90
8489;DHT22;4281;45.772;12.852;2022-09-21T01:54:39;14.90;99.90
8489;DHT22;4281;45.772;12.852;2022-09-21T01:57:14;14.60;99.90
8489;DHT22;4281;45.772;12.852;2022-09-21T01:59:48;14.60;99.90
8489;DHT22;4281;45.772;12.852;2022-09-21T02:02:22;14.70;99.90
8489;DHT22;4281;45.772;12.852;2022-09-21T02:04:52;15.00;99.90
8489;DHT22;4281;45.772;12.852;2022-09-21T02:07:20;14.60;99.90
8489;DHT22;4281;45.772;12.852;2022-09-21T02:09:48;14.40;99.90
8489;DHT22;4281;45.772;12.852;2022-09-21T02:12:17;14.50;99.90
8489;DHT22;4281;45.772;12.852;2022-09-21T02:14:45;14.70;99.90
8489;DHT22;4281;45.772;12.852;2022-09-21T02:17:24;14.60;99.90
8489;DHT22;4281;45.772;12.852;2022-09-21T02:19:59;14.50;99.90
8489;DHT22;4281;45.772;12.852;2022-09-21T02:22:32;14.40;99.90
8489;DHT22;4281;45.772;12.852;2022-09-21T02:25:07;14.40;99.90
8489;DHT22;4281;45.772;12.852;2022-09-21T02:27:43;14.60;99.90
8489;DHT22;4281;45.772;12.852;2022-09-21T02:30:14;14.60;99.90
8489;DHT22;4281;45.772;12.852;2022-09-21T02:32:48;14.50;99.90
8489;DHT22;4281;45.772;12.852;2022-09-21T02:35:25;14.10;99.90
8489;DHT22;4281;45.772;12.852;2022-09-21T02:38:02;14.00;99.90
8489;DHT22;4281;45.772;12.852;2022-09-21T02:40:38;14.20;99.90
8489;DHT22;4281;45.772;12.852;2022-09-21T02:43:09;14.20;99.90
8489;DHT22;4281;45.772;12.852;2022-09-21T02:45:42;14.40;99.90
8489;DHT22;4281;45.772;12.852;2022-09-21T02:48:17;14.50;99.90
8489;DHT22;4281;45.772;12.852;2022-09-21T02:50:49;14.30;99.90
8489;DHT22;4281;45.772;12.852;2022-09-21T02:53:22;14.10;99.90
8489;DHT22;4281;45.772;12.852;2022-09-21T02:55:53;13.90;99.90
8489;DHT22;4281;45.772;12.852;2022-09-21T02:58:24;13.90;99.90
8489;DHT22;4281;45.772;12.852;2022-09-21T03:00:54;13.90;99.90
8489;DHT22;4281;45.772;12.852;2022-09-21T03:03:25;13.70;99.90
8489;DHT22;4281;45.772;12.852;2022-09-21T03:05:54;13.70;99.90
8489;DHT22;4281;45.772;12.852;2022-09-21T03:11:06;13.80;99.90
8489;DHT22;4281;45.772;12.852;2022-09-21T03:13:36;14.30;99.90
8489;DHT22;4281;45.772;12.852;2022-09-21T03:16:06;14.70;99.90
8489;DHT22;4281;45.772;12.852;2022-09-21T03:18:35;14.90;99.90
8489;DHT22;4281;45.772;12.852;2022-09-21T03:21:06;15.10;99.90
8489;DHT22;4281;45.772;12.852;2022-09-21T03:23:34;15.00;99.90
8489;DHT22;4281;45.772;12.852;2022-09-21T03:26:03;14.90;99.90
8489;DHT22;4281;45.772;12.852;2022-09-21T03:28:31;14.50;99.90
8489;DHT22;4281;45.772;12.852;2022-09-21T03:31:00;14.50;99.90
8489;DHT22;4281;45.772;12.852;2022-09-21T03:33:28;14.50;99.90
8489;DHT22;4281;45.772;12.852;2022-09-21T03:35:58;14.80;99.90
8489;DHT22;4281;45.772;12.852;2022-09-21T03:38:26;15.10;99.90
8489;DHT22;4281;45.772;12.852;2022-09-21T03:40:55;15.00;99.90
8489;DHT22;4281;45.772;12.852;2022-09-21T03:43:24;14.80;99.90
8489;DHT22;4281;45.772;12.852;2022-09-21T03:45:52;14.60;99.90
8489;DHT22;4281;45.772;12.852;2022-09-21T03:48:21;14.70;99.90
8489;DHT22;4281;45.772;12.852;2022-09-21T03:50:49;14.80;99.90
8489;DHT22;4281;45.772;12.852;2022-09-21T03:53:19;14.90;99.90
8489;DHT22;4281;45.772;12.852;2022-09-21T03:55:48;14.70;99.90
8489;DHT22;4281;45.772;12.852;2022-09-21T03:58:17;14.80;99.90
8489;DHT22;4281;45.772;12.852;2022-09-21T04:00:45;14.80;99.90
8489;DHT22;4281;45.772;12.852;2022-09-21T04:03:14;14.60;99.90
8489;DHT22;4281;45.772;12.852;2022-09-21T04:05:42;14.70;99.90
8489;DHT22;4281;45.772;12.852;2022-09-21T04:08:10;14.60;99.90
8489;DHT22;4281;45.772;12.852;2022-09-21T04:10:40;14.60;99.90
8489;DHT22;4281;45.772;12.852;2022-09-21T04:13:09;14.80;99.90
8489;DHT22;4281;45.772;12.852;2022-09-21T04:15:38;14.80;99.90
8489;DHT22;4281;45.772;12.852;2022-09-21T04:18:06;14.40;99.90
8489;DHT22;4281;45.772;12.852;2022-09-21T04:20:34;14.40;99.90
8489;DHT22;4281;45.772;12.852;2022-09-21T04:23:03;14.50;99.90
8489;DHT22;4281;45.772;12.852;2022-09-21T04:25:31;14.60;99.90
8489;DHT22;4281;45.772;12.852;2022-09-21T04:28:01;14.70;99.90
8489;DHT22;4281;45.772;12.852;2022-09-21T04:30:29;14.60;99.90
8489;DHT22;4281;45.772;12.852;2022-09-21T04:33:03;14.70;99.90
8489;DHT22;4281;45.772;12.852;2022-09-21T04:35:32;15.10;99.90
8489;DHT22;4281;45.772;12.852;2022-09-21T04:38:00;14.90;99.90
8489;DHT22;4281;45.772;12.852;2022-09-21T04:40:29;14.80;99.90
8489;DHT22;4281;45.772;12.852;2022-09-21T04:42:57;14.90;99.90
8489;DHT22;4281;45.772;12.852;2022-09-21T04:45:27;14.90;99.90
8489;DHT22;4281;45.772;12.852;2022-09-21T04:47:55;14.70;99.90
8489;DHT22;4281;45.772;12.852;2022-09-21T04:50:24;14.60;99.90
8489;DHT22;4281;45.772;12.852;2022-09-21T04:52:52;14.10;99.90
8489;DHT22;4281;45.772;12.852;2022-09-21T04:55:20;14.10;99.90
8489;DHT22;4281;45.772;12.852;2022-09-21T04:57:50;13.80;99.90
8489;DHT22;4281;45.772;12.852;2022-09-21T05:00:18;13.70;99.90
8489;DHT22;4281;45.772;12.852;2022-09-21T05:02:48;13.80;99.90
8489;DHT22;4281;45.772;12.852;2022-09-21T05:05:17;14.00;99.90
8489;DHT22;4281;45.772;12.852;2022-09-21T05:07:46;13.80;99.90
8489;DHT22;4281;45.772;12.852;2022-09-21T05:10:15;13.80;99.90
8489;DHT22;4281;45.772;12.852;2022-09-21T05:12:42;13.80;99.90
8489;DHT22;4281;45.772;12.852;2022-09-21T05:15:11;13.80;99.90
8489;DHT22;4281;45.772;12.852;2022-09-21T05:17:40;13.90;99.90
8489;DHT22;4281;45.772;12.852;2022-09-21T05:20:10;14.00;99.90
8489;DHT22;4281;45.772;12.852;2022-09-21T05:22:39;14.10;99.90
8489;DHT22;4281;45.772;12.852;2022-09-21T05:25:08;13.90;99.90
8489;DHT22;4281;45.772;12.852;2022-09-21T05:27:37;14.20;99.90
8489;DHT22;4281;45.772;12.852;2022-09-21T05:30:06;14.20;99.90
8489;DHT22;4281;45.772;12.852;2022-09-21T05:32:43;14.30;99.90
8489;DHT22;4281;45.772;12.852;2022-09-21T05:35:21;14.40;99.90
8489;DHT22;4281;45.772;12.852;2022-09-21T05:37:58;14.50;99.90
8489;DHT22;4281;45.772;12.852;2022-09-21T05:40:28;14.60;99.90
8489;DHT22;4281;45.772;12.852;2022-09-21T05:42:57;14.60;99.90
8489;DHT22;4281;45.772;12.852;2022-09-21T05:45:26;14.10;99.90
8489;DHT22;4281;45.772;12.852;2022-09-21T05:48:06;14.10;99.90
8489;DHT22;4281;45.772;12.852;2022-09-21T05:50:52;14.10;99.90
8489;DHT22;4281;45.772;12.852;2022-09-21T05:53:35;14.00;99.90
8489;DHT22;4281;45.772;12.852;2022-09-21T05:56:12;13.80;99.90
8489;DHT22;4281;45.772;12.852;2022-09-21T05:58:52;14.00;99.90
8489;DHT22;4281;45.772;12.852;2022-09-21T06:01:32;13.90;99.90
8489;DHT22;4281;45.772;12.852;2022-09-21T06:04:05;14.00;99.90
8489;DHT22;4281;45.772;12.852;2022-09-21T06:06:36;14.10;99.90
8489;DHT22;4281;45.772;12.852;2022-09-21T06:09:05;14.00;99.90
8489;DHT22;4281;45.772;12.852;2022-09-21T06:11:33;14.10;99.90
8489;DHT22;4281;45.772;12.852;2022-09-21T06:14:02;14.30;99.90
8489;DHT22;4281;45.772;12.852;2022-09-21T06:16:38;14.10;99.90
8489;DHT22;4281;45.772;12.852;2022-09-21T06:19:10;14.10;99.90
8489;DHT22;4281;45.772;12.852;2022-09-21T06:21:40;14.40;99.90
8489;DHT22;4281;45.772;12.852;2022-09-21T06:24:08;14.60;99.90
8489;DHT22;4281;45.772;12.852;2022-09-21T06:26:38;14.50;99.90
8489;DHT22;4281;45.772;12.852;2022-09-21T06:29:07;14.40;99.90
8489;DHT22;4281;45.772;12.852;2022-09-21T06:31:35;14.70;99.90
8489;DHT22;4281;45.772;12.852;2022-09-21T06:34:03;15.00;99.90
8489;DHT22;4281;45.772;12.852;2022-09-21T06:36:32;15.10;99.90
8489;DHT22;4281;45.772;12.852;2022-09-21T06:39:02;14.80;99.90
8489;DHT22;4281;45.772;12.852;2022-09-21T06:41:30;14.80;99.90
8489;DHT22;4281;45.772;12.852;2022-09-21T06:43:59;15.00;99.90
8489;DHT22;4281;45.772;12.852;2022-09-21T06:46:27;15.10;99.90
8489;DHT22;4281;45.772;12.852;2022-09-21T06:48:55;15.40;99.90
8489;DHT22;4281;45.772;12.852;2022-09-21T06:51:26;15.30;99.90
8489;DHT22;4281;45.772;12.852;2022-09-21T06:53:55;15.40;99.90
8489;DHT22;4281;45.772;12.852;2022-09-21T06:56:25;15.60;99.90
8489;DHT22;4281;45.772;12.852;2022-09-21T06:58:54;15.80;99.90
8489;DHT22;4281;45.772;12.852;2022-09-21T07:01:22;15.90;99.90
8489;DHT22;4281;45.772;12.852;2022-09-21T07:03:51;16.00;99.90
8489;DHT22;4281;45.772;12.852;2022-09-21T07:06:20;16.00;99.90
8489;DHT22;4281;45.772;12.852;2022-09-21T07:11:42;16.40;99.90
8489;DHT22;4281;45.772;12.852;2022-09-21T07:14:11;16.40;99.90
8489;DHT22;4281;45.772;12.852;2022-09-21T07:16:40;16.40;99.90
8489;DHT22;4281;45.772;12.852;2022-09-21T07:19:09;16.40;99.90
8489;DHT22;4281;45.772;12.852;2022-09-21T07:21:38;16.50;99.90
8489;DHT22;4281;45.772;12.852;2022-09-21T07:24:06;16.60;99.90
8489;DHT22;4281;45.772;12.852;2022-09-21T07:26:38;16.60;99.90
8489;DHT22;4281;45.772;12.852;2022-09-21T07:29:08;16.70;99.90
8489;DHT22;4281;45.772;12.852;2022-09-21T07:31:36;16.70;99.90
8489;DHT22;4281;45.772;12.852;2022-09-21T07:34:05;16.90;99.90
8489;DHT22;4281;45.772;12.852;2022-09-21T07:36:34;17.10;99.90
8489;DHT22;4281;45.772;12.852;2022-09-21T07:39:02;17.10;99.90
8489;DHT22;4281;45.772;12.852;2022-09-21T07:41:31;17.20;99.90
8489;DHT22;4281;45.772;12.852;2022-09-21T07:43:59;17.20;99.90
8489;DHT22;4281;45.772;12.852;2022-09-21T07:46:29;17.20;99.90
8489;DHT22;4281;45.772;12.852;2022-09-21T07:48:58;17.30;99.90
8489;DHT22;4281;45.772;12.852;2022-09-21T07:51:26;17.40;99.90
8489;DHT22;4281;45.772;12.852;2022-09-21T07:53:55;17.20;99.90
8489;DHT22;4281;45.772;12.852;2022-09-21T07:56:24;17.30;99.90
8489;DHT22;4281;45.772;12.852;2022-09-21T07:58:52;17.40;99.90
8489;DHT22;4281;45.772;12.852;2022-09-21T08:01:37;17.40;99.90
8489;DHT22;4281;45.772;12.852;2022-09-21T08:04:07;17.40;99.90
8489;DHT22;4281;45.772;12.852;2022-09-21T08:06:37;17.40;99.90
8489;DHT22;4281;45.772;12.852;2022-09-21T08:09:10;17.50;99.90
8489;DHT22;4281;45.772;12.852;2022-09-21T08:11:39;17.60;99.90
8489;DHT22;4281;45.772;12.852;2022-09-21T08:14:12;17.50;99.90
8489;DHT22;4281;45.772;12.852;2022-09-21T08:16:53;17.70;99.90
8489;DHT22;4281;45.772;12.852;2022-09-21T08:19:22;17.80;99.90
8489;DHT22;4281;45.772;12.852;2022-09-21T08:21:51;17.80;99.90
8489;DHT22;4281;45.772;12.852;2022-09-21T08:24:24;18.00;99.90
8489;DHT22;4281;45.772;12.852;2022-09-21T08:26:52;17.90;99.90
8489;DHT22;4281;45.772;12.852;2022-09-21T08:29:22;18.00;99.90
8489;DHT22;4281;45.772;12.852;2022-09-21T08:31:52;18.10;99.90
8489;DHT22;4281;45.772;12.852;2022-09-21T08:34:21;18.20;99.90
8489;DHT22;4281;45.772;12.852;2022-09-21T08:36:50;18.20;99.90
8489;DHT22;4281;45.772;12.852;2022-09-21T08:39:21;18.30;99.90
8489;DHT22;4281;45.772;12.852;2022-09-21T08:42:00;18.30;99.90
8489;DHT22;4281;45.772;12.852;2022-09-21T08:44:37;18.30;99.90
8489;DHT22;4281;45.772;12.852;2022-09-21T08:47:12;18.50;99.90
8489;DHT22;4281;45.772;12.852;2022-09-21T08:49:46;18.60;99.90
8489;DHT22;4281;45.772;12.852;2022-09-21T08:52:20;18.60;99.90
8489;DHT22;4281;45.772;12.852;2022-09-21T08:54:53;18.60;99.90
8489;DHT22;4281;45.772;12.852;2022-09-21T08:57:28;18.70;99.90
8489;DHT22;4281;45.772;12.852;2022-09-21T08:59:58;18.70;99.90
8489;DHT22;4281;45.772;12.852;2022-09-21T09:02:40;18.90;99.90
8489;DHT22;4281;45.772;12.852;2022-09-21T09:05:29;19.00;99.90
8489;DHT22;4281;45.772;12.852;2022-09-21T09:08:16;19.10;99.90
8489;DHT22;4281;45.772;12.852;2022-09-21T09:10:57;19.10;99.90
8489;DHT22;4281;45.772;12.852;2022-09-21T09:13:42;19.20;99.90
8489;DHT22;4281;45.772;12.852;2022-09-21T09:16:19;19.20;99.90
8489;DHT22;4281;45.772;12.852;2022-09-21T09:18:53;19.20;99.90
8489;DHT22;4281;45.772;12.852;2022-09-21T09:21:25;19.30;99.90
8489;DHT22;4281;45.772;12.852;2022-09-21T09:24:01;19.40;99.90
8489;DHT22;4281;45.772;12.852;2022-09-21T09:26:34;19.30;99.90
8489;DHT22;4281;45.772;12.852;2022-09-21T09:29:13;19.40;99.90
8489;DHT22;4281;45.772;12.852;2022-09-21T09:31:43;19.20;99.90
8489;DHT22;4281;45.772;12.852;2022-09-21T09:34:15;19.30;99.90
8489;DHT22;4281;45.772;12.852;2022-09-21T09:36:51;19.40;99.90
8489;DHT22;4281;45.772;12.852;2022-09-21T09:39:27;19.30;99.90
8489;DHT22;4281;45.772;12.852;2022-09-21T09:42:30;19.40;99.90
8489;DHT22;4281;45.772;12.852;2022-09-21T09:48:29;19.50;99.90
8489;DHT22;4281;45.772;12.852;2022-09-21T09:51:02;19.50;99.90
8489;DHT22;4281;45.772;12.852;2022-09-21T09:53:30;19.50;99.90
8489;DHT22;4281;45.772;12.852;2022-09-21T09:56:00;19.60;99.90
8489;DHT22;4281;45.772;12.852;2022-09-21T09:58:36;19.70;99.90
8489;DHT22;4281;45.772;12.852;2022-09-21T10:01:06;19.90;99.90
8489;DHT22;4281;45.772;12.852;2022-09-21T10:03:34;19.90;99.90
8489;DHT22;4281;45.772;12.852;2022-09-21T10:06:09;20.00;99.90
8489;DHT22;4281;45.772;12.852;2022-09-21T10:08:43;20.10;99.90
8489;DHT22;4281;45.772;12.852;2022-09-21T10:11:14;19.90;99.90
8489;DHT22;4281;45.772;12.852;2022-09-21T10:13:44;19.90;99.90
8489;DHT22;4281;45.772;12.852;2022-09-21T10:16:18;20.00;99.90
8489;DHT22;4281;45.772;12.852;2022-09-21T10:18:49;20.10;99.90
8489;DHT22;4281;45.772;12.852;2022-09-21T10:21:21;20.20;99.90
8489;DHT22;4281;45.772;12.852;2022-09-21T10:23:52;20.20;99.90
8489;DHT22;4281;45.772;12.852;2022-09-21T10:26:23;20.20;99.90
8489;DHT22;4281;45.772;12.852;2022-09-21T10:28:59;20.30;99.90
8489;DHT22;4281;45.772;12.852;2022-09-21T10:31:28;20.30;99.90
8489;DHT22;4281;45.772;12.852;2022-09-21T10:34:12;20.20;99.90
8489;DHT22;4281;45.772;12.852;2022-09-21T10:36:49;20.20;99.90
8489;DHT22;4281;45.772;12.852;2022-09-21T10:39:23;20.10;99.90
8489;DHT22;4281;45.772;12.852;2022-09-21T10:41:55;20.30;99.90
8489;DHT22;4281;45.772;12.852;2022-09-21T10:44:28;20.30;99.90
8489;DHT22;4281;45.772;12.852;2022-09-21T10:47:11;20.40;99.90
8489;DHT22;4281;45.772;12.852;2022-09-21T10:49:44;20.50;99.90
8489;DHT22;4281;45.772;12.852;2022-09-21T10:52:16;20.60;99.90
8489;DHT22;4281;45.772;12.852;2022-09-21T10:54:48;20.60;99.90
8489;DHT22;4281;45.772;12.852;2022-09-21T10:57:21;20.50;99.90
8489;DHT22;4281;45.772;12.852;2022-09-21T10:59:50;20.60;99.90
8489;DHT22;4281;45.772;12.852;2022-09-21T11:02:30;20.50;99.90
8489;DHT22;4281;45.772;12.852;2022-09-21T11:05:12;20.60;99.90
8489;DHT22;4281;45.772;12.852;2022-09-21T11:07:54;20.60;99.70
8489;DHT22;4281;45.772;12.852;2022-09-21T11:15:24;20.60;99.30
8489;DHT22;4281;45.772;12.852;2022-09-21T11:18:01;20.80;99.10
8489;DHT22;4281;45.772;12.852;2022-09-21T11:20:40;20.90;97.70
8489;DHT22;4281;45.772;12.852;2022-09-21T11:23:25;20.80;97.10
8489;DHT22;4281;45.772;12.852;2022-09-21T11:26:01;20.70;96.70
8489;DHT22;4281;45.772;12.852;2022-09-21T11:28:34;20.80;97.20
8489;DHT22;4281;45.772;12.852;2022-09-21T11:31:26;20.80;95.70
8489;DHT22;4281;45.772;12.852;2022-09-21T11:34:10;20.70;96.60
8489;DHT22;4281;45.772;12.852;2022-09-21T11:36:51;20.70;97.20
8489;DHT22;4281;45.772;12.852;2022-09-21T11:39:31;20.90;97.30
8489;DHT22;4281;45.772;12.852;2022-09-21T11:42:18;21.10;98.10
8489;DHT22;4281;45.772;12.852;2022-09-21T11:44:53;21.10;98.20
8489;DHT22;4281;45.772;12.852;2022-09-21T11:47:48;21.10;98.30
8489;DHT22;4281;45.772;12.852;2022-09-21T11:50:42;21.20;98.00
8489;DHT22;4281;45.772;12.852;2022-09-21T11:53:37;21.30;98.60
8489;DHT22;4281;45.772;12.852;2022-09-21T11:56:25;21.30;99.50
8489;DHT22;4281;45.772;12.852;2022-09-21T11:59:05;21.40;97.80
8489;DHT22;4281;45.772;12.852;2022-09-21T12:01:55;21.50;98.20
8489;DHT22;4281;45.772;12.852;2022-09-21T12:04:41;21.40;98.50
8489;DHT22;4281;45.772;12.852;2022-09-21T12:07:25;21.40;98.00
8489;DHT22;4281;45.772;12.852;2022-09-21T12:10:37;21.50;99.50
8489;DHT22;4281;45.772;12.852;2022-09-21T12:13:18;21.40;97.90
8489;DHT22;4281;45.772;12.852;2022-09-21T12:15:57;21.40;96.60
8489;DHT22;4281;45.772;12.852;2022-09-21T12:18:30;21.40;98.40
8489;DHT22;4281;45.772;12.852;2022-09-21T12:21:08;21.50;98.40
8489;DHT22;4281;45.772;12.852;2022-09-21T12:23:42;21.50;96.80
8489;DHT22;4281;45.772;12.852;2022-09-21T12:26:17;21.50;97.20
8489;DHT22;4281;45.772;12.852;2022-09-21T12:28:53;21.60;95.60
8489;DHT22;4281;45.772;12.852;2022-09-21T12:31:30;21.60;95.30
8489;DHT22;4281;45.772;12.852;2022-09-21T12:34:09;21.50;95.70
8489;DHT22;4281;45.772;12.852;2022-09-21T12:36:45;21.50;96.20
8489;DHT22;4281;45.772;12.852;2022-09-21T12:39:24;21.70;96.10
8489;DHT22;4281;45.772;12.852;2022-09-21T12:41:59;21.50;94.60
8489;DHT22;4281;45.772;12.852;2022-09-21T12:44:36;21.30;94.80
8489;DHT22;4281;45.772;12.852;2022-09-21T12:47:21;21.20;94.60
8489;DHT22;4281;45.772;12.852;2022-09-21T12:49:58;21.00;93.90
8489;DHT22;4281;45.772;12.852;2022-09-21T12:52:30;21.20;95.40
8489;DHT22;4281;45.772;12.852;2022-09-21T12:55:18;21.30;95.60
8489;DHT22;4281;45.772;12.852;2022-09-21T12:57:57;21.50;95.30
8489;DHT22;4281;45.772;12.852;2022-09-21T13:00:50;21.40;95.60
8489;DHT22;4281;45.772;12.852;2022-09-21T13:03:30;21.70;94.90
8489;DHT22;4281;45.772;12.852;2022-09-21T13:06:12;21.70;93.70
8489;DHT22;4281;45.772;12.852;2022-09-21T13:08:44;21.30;93.30
8489;DHT22;4281;45.772;12.852;2022-09-21T13:11:14;21.30;93.70
8489;DHT22;4281;45.772;12.852;2022-09-21T13:13:50;21.40;94.10
8489;DHT22;4281;45.772;12.852;2022-09-21T13:16:26;21.50;93.80
8489;DHT22;4281;45.772;12.852;2022-09-21T13:19:20;21.40;94.00
8489;DHT22;4281;45.772;12.852;2022-09-21T13:22:09;21.50;95.60
8489;DHT22;4281;45.772;12.852;2022-09-21T13:24:40;21.20;94.10
8489;DHT22;4281;45.772;12.852;2022-09-21T13:27:11;21.30;94.80
8489;DHT22;4281;45.772;12.852;2022-09-21T13:29:42;21.40;95.50
8489;DHT22;4281;45.772;12.852;2022-09-21T13:32:49;21.60;95.80
8489;DHT22;4281;45.772;12.852;2022-09-21T13:38:25;21.60;94.60
8489;DHT22;4281;45.772;12.852;2022-09-21T13:41:02;21.50;95.10
8489;DHT22;4281;45.772;12.852;2022-09-21T13:44:00;21.60;95.80
8489;DHT22;4281;45.772;12.852;2022-09-21T13:46:51;21.70;95.70
8489;DHT22;4281;45.772;12.852;2022-09-21T13:49:29;21.80;95.00
8489;DHT22;4281;45.772;12.852;2022-09-21T13:52:03;21.60;94.00
8489;DHT22;4281;45.772;12.852;2022-09-21T13:54:49;21.60;94.30
8489;DHT22;4281;45.772;12.852;2022-09-21T13:57:34;21.60;94.60
8489;DHT22;4281;45.772;12.852;2022-09-21T14:00:27;21.60;94.40
8489;DHT22;4281;45.772;12.852;2022-09-21T14:03:16;21.60;94.30
8489;DHT22;4281;45.772;12.852;2022-09-21T14:05:52;21.40;94.50
8489;DHT22;4281;45.772;12.852;2022-09-21T14:08:25;21.20;95.00
8489;DHT22;4281;45.772;12.852;2022-09-21T14:11:02;21.60;94.80
8489;DHT22;4281;45.772;12.852;2022-09-21T14:13:40;21.30;95.10
8489;DHT22;4281;45.772;12.852;2022-09-21T14:22:41;21.30;94.70
8489;DHT22;4281;45.772;12.852;2022-09-21T14:25:49;21.20;95.00
8489;DHT22;4281;45.772;12.852;2022-09-21T14:28:37;21.30;93.70
8489;DHT22;4281;45.772;12.852;2022-09-21T14:31:17;21.30;94.80
8489;DHT22;4281;45.772;12.852;2022-09-21T14:33:54;21.30;95.70
8489;DHT22;4281;45.772;12.852;2022-09-21T14:36:27;21.40;95.60
8489;DHT22;4281;45.772;12.852;2022-09-21T14:39:04;21.50;94.90
8489;DHT22;4281;45.772;12.852;2022-09-21T14:41:39;21.30;94.50
8489;DHT22;4281;45.772;12.852;2022-09-21T14:44:17;21.40;94.80
8489;DHT22;4281;45.772;12.852;2022-09-21T14:47:10;21.50;94.90
8489;DHT22;4281;45.772;12.852;2022-09-21T14:50:16;21.40;94.30
8489;DHT22;4281;45.772;12.852;2022-09-21T14:55:58;21.60;93.80
8489;DHT22;4281;45.772;12.852;2022-09-21T14:58:41;21.40;93.90
8489;DHT22;4281;45.772;12.852;2022-09-21T15:01:35;21.50;94.30
8489;DHT22;4281;45.772;12.852;2022-09-21T15:04:28;21.40;94.30
8489;DHT22;4281;45.772;12.852;2022-09-21T15:07:19;21.20;94.10
8489;DHT22;4281;45.772;12.852;2022-09-21T15:10:26;21.30;94.50
8489;DHT22;4281;45.772;12.852;2022-09-21T15:13:36;21.20;94.60
8489;DHT22;4281;45.772;12.852;2022-09-21T15:16:30;21.20;94.70
8489;DHT22;4281;45.772;12.852;2022-09-21T15:19:12;21.30;93.80
8489;DHT22;4281;45.772;12.852;2022-09-21T15:21:43;21.40;94.00
8489;DHT22;4281;45.772;12.852;2022-09-21T15:24:25;21.30;92.90
8489;DHT22;4281;45.772;12.852;2022-09-21T15:27:02;21.10;93.60
8489;DHT22;4281;45.772;12.852;2022-09-21T15:29:35;21.10;93.60
8489;DHT22;4281;45.772;12.852;2022-09-21T15:32:28;21.10;93.90
8489;DHT22;4281;45.772;12.852;2022-09-21T15:35:01;20.90;93.70
8489;DHT22;4281;45.772;12.852;2022-09-21T15:37:35;20.90;93.60
8489;DHT22;4281;45.772;12.852;2022-09-21T15:40:18;21.00;94.00
8489;DHT22;4281;45.772;12.852;2022-09-21T15:43:01;21.00;93.70
8489;DHT22;4281;45.772;12.852;2022-09-21T15:45:48;21.10;93.70
8489;DHT22;4281;45.772;12.852;2022-09-21T15:48:31;21.20;93.70
8489;DHT22;4281;45.772;12.852;2022-09-21T15:51:13;21.10;94.00
8489;DHT22;4281;45.772;12.852;2022-09-21T15:53:52;20.90;94.20
8489;DHT22;4281;45.772;12.852;2022-09-21T15:56:28;20.90;93.90
8489;DHT22;4281;45.772;12.852;2022-09-21T15:59:03;20.80;93.60
8489;DHT22;4281;45.772;12.852;2022-09-21T16:01:40;20.80;93.80
8489;DHT22;4281;45.772;12.852;2022-09-21T16:04:16;20.80;94.20
8489;DHT22;4281;45.772;12.852;2022-09-21T16:06:47;20.80;95.70
8489;DHT22;4281;45.772;12.852;2022-09-21T16:09:38;20.80;95.00
8489;DHT22;4281;45.772;12.852;2022-09-21T16:12:30;20.70;95.00
8489;DHT22;4281;45.772;12.852;2022-09-21T16:15:07;20.70;94.90
8489;DHT22;4281;45.772;12.852;2022-09-21T16:17:55;20.70;95.60
8489;DHT22;4281;45.772;12.852;2022-09-21T16:20:43;20.70;95.70
8489;DHT22;4281;45.772;12.852;2022-09-21T16:23:16;20.60;96.00
8489;DHT22;4281;45.772;12.852;2022-09-21T16:25:53;20.60;96.00
8489;DHT22;4281;45.772;12.852;2022-09-21T16:28:44;20.60;95.50
8489;DHT22;4281;45.772;12.852;2022-09-21T16:31:24;20.60;96.00
8489;DHT22;4281;45.772;12.852;2022-09-21T16:34:09;20.50;96.30
8489;DHT22;4281;45.772;12.852;2022-09-21T16:36:46;20.40;96.50
8489;DHT22;4281;45.772;12.852;2022-09-21T16:39:20;20.30;97.50
8489;DHT22;4281;45.772;12.852;2022-09-21T16:41:54;20.30;97.50
8489;DHT22;4281;45.772;12.852;2022-09-21T16:44:26;20.10;97.80
8489;DHT22;4281;45.772;12.852;2022-09-21T16:46:59;20.20;97.90
8489;DHT22;4281;45.772;12.852;2022-09-21T16:49:34;19.90;98.10
8489;DHT22;4281;45.772;12.852;2022-09-21T16:52:03;20.00;98.50
8489;DHT22;4281;45.772;12.852;2022-09-21T16:54:36;20.00;98.20
8489;DHT22;4281;45.772;12.852;2022-09-21T16:57:05;19.90;98.10
8489;DHT22;4281;45.772;12.852;2022-09-21T16:59:34;19.90;97.50
8489;DHT22;4281;45.772;12.852;2022-09-21T17:02:05;19.90;96.90
8489;DHT22;4281;45.772;12.852;2022-09-21T17:04:43;19.90;96.80